Time;durP1;ratioP1;P1;durP2;ratioP2;P2;SDS_P1;SDS_P2;PMS_P1;PMS_P2;Temp;Humidity;BMP_temperature;BMP_pressure;BME280_temperature;BME280_humidity;BME280_pressure;Samples;Min_cycle;Max_cycle;Signal;HPM_P1;HPM_P2
2022/03/09 00:01:45;;;;;;;11.63;7.60;;;;;;;-4.83;76.30;98410.00;6159464;28;20232;-66
2022/03/09 00:04:48;;;;;;;10.03;7.73;;;;;;;-4.82;76.31;98397.97;6154185;28;20242;-67
2022/03/09 00:07:50;;;;;;;12.53;7.93;;;;;;;-4.79;76.73;98405.69;6154019;28;21089;-66
2022/03/09 00:10:56;;;;;;;12.10;8.07;;;;;;;-4.79;76.38;98398.78;6154188;28;20241;-67
2022/03/09 00:14:00;;;;;;;19.97;9.63;;;;;;;-4.76;76.83;98401.34;6153877;28;20705;-67
2022/03/09 00:17:02;;;;;;;11.00;7.27;;;;;;;-4.76;76.78;98409.06;6157618;28;20713;-67
2022/03/09 00:20:06;;;;;;;12.47;7.40;;;;;;;-4.73;76.68;98413.34;6156327;28;20241;-67
2022/03/09 00:23:08;;;;;;;11.40;7.20;;;;;;;-4.75;76.92;98415.94;6169074;28;20235;-66
2022/03/09 00:26:10;;;;;;;10.83;8.07;;;;;;;-4.74;76.87;98420.22;6157752;28;20230;-66
2022/03/09 00:29:13;;;;;;;10.13;7.67;;;;;;;-4.68;76.90;98421.88;6158877;28;20233;-66
2022/03/09 00:32:16;;;;;;;13.67;8.60;;;;;;;-4.62;77.21;98414.13;6150171;28;21199;-66
2022/03/09 00:35:18;;;;;;;12.87;8.57;;;;;;;-4.53;76.86;98419.19;6168555;28;20242;-67
2022/03/09 00:38:21;;;;;;;13.07;9.00;;;;;;;-4.46;76.99;98418.25;6151504;28;20737;-67
2022/03/09 00:41:23;;;;;;;13.77;8.80;;;;;;;-4.47;77.37;98407.09;6173162;28;20233;-67
2022/03/09 00:44:25;;;;;;;10.83;8.60;;;;;;;-4.44;76.59;98403.66;6157221;28;20232;-68
2022/03/09 00:47:27;;;;;;;13.83;8.93;;;;;;;-4.45;76.74;98401.94;6172108;28;20233;-67
2022/03/09 00:50:29;;;;;;;12.83;8.70;;;;;;;-4.48;77.15;98407.09;6159669;28;20225;-67
2022/03/09 00:53:31;;;;;;;12.17;8.63;;;;;;;-4.46;76.74;98402.81;6173538;28;20233;-69
2022/03/09 00:56:34;;;;;;;11.27;8.27;;;;;;;-4.47;76.79;98403.66;6158109;28;20255;-66
2022/03/09 00:59:35;;;;;;;11.17;8.03;;;;;;;-4.50;76.81;98403.72;6156501;28;20241;-67
2022/03/09 01:02:43;;;;;;;15.00;9.50;;;;;;;-4.51;76.60;98417.47;6188897;28;20246;-68
2022/03/09 01:05:46;;;;;;;14.83;8.50;;;;;;;-4.54;76.88;98414.91;6158318;28;20297;-67
2022/03/09 01:08:48;;;;;;;12.97;8.20;;;;;;;-4.55;76.75;98419.19;6158301;28;20261;-67
2022/03/09 01:11:50;;;;;;;13.00;8.13;;;;;;;-4.59;76.92;98422.66;6157820;28;20225;-67
2022/03/09 01:14:52;;;;;;;11.87;8.77;;;;;;;-4.63;76.63;98420.97;6159001;28;20709;-67
2022/03/09 01:17:55;;;;;;;11.47;8.17;;;;;;;-4.64;76.87;98432.16;6176993;28;20226;-66
2022/03/09 01:20:57;;;;;;;10.93;7.13;;;;;;;-4.68;77.51;98422.72;6188234;28;20233;-66
2022/03/09 01:23:59;;;;;;;8.60;6.80;;;;;;;-4.72;76.92;98433.94;6181218;28;20236;-68
2022/03/09 01:27:01;;;;;;;12.93;8.33;;;;;;;-4.71;77.05;98429.66;6180523;28;20232;-67
2022/03/09 01:30:04;;;;;;;10.53;7.93;;;;;;;-4.74;76.71;98427.94;6156804;28;20696;-67
2022/03/09 01:33:07;;;;;;;11.67;7.30;;;;;;;-4.77;77.07;98424.53;6172746;28;20213;-66
2022/03/09 01:36:09;;;;;;;12.73;7.87;;;;;;;-4.82;76.73;98422.00;6157099;28;20225;-66
2022/03/09 01:39:11;;;;;;;10.27;7.20;;;;;;;-4.86;77.11;98423.72;6156937;28;20265;-66
2022/03/09 01:42:13;;;;;;;12.80;8.27;;;;;;;-4.89;76.92;98428.06;6157457;28;20284;-66
2022/03/09 01:45:18;;;;;;;12.50;8.10;;;;;;;-4.93;76.93;98434.94;6177932;28;20602;-66
2022/03/09 01:48:20;;;;;;;12.00;8.47;;;;;;;-4.98;77.03;98428.97;6202701;28;20325;-66
2022/03/09 01:51:24;;;;;;;14.20;8.70;;;;;;;-5.04;77.22;98428.16;6181803;28;20316;-66
2022/03/09 01:54:30;;;;;;;12.77;8.20;;;;;;;-5.08;77.04;98418.72;6179040;28;20715;-67
2022/03/09 01:57:32;;;;;;;11.97;7.83;;;;;;;-5.12;77.41;98407.63;6180684;28;20927;-67
2022/03/09 02:00:34;;;;;;;11.83;8.37;;;;;;;-5.14;77.47;98403.34;6180803;28;20244;-66
2022/03/09 02:03:36;;;;;;;12.53;7.83;;;;;;;-5.17;77.42;98395.63;6180499;28;20292;-67
2022/03/09 02:06:39;;;;;;;15.57;8.50;;;;;;;-5.18;77.31;98391.34;6211397;28;20235;-67
2022/03/09 02:09:41;;;;;;;11.40;7.90;;;;;;;-5.17;77.58;98387.91;6180609;28;20240;-67
2022/03/09 02:12:44;;;;;;;11.07;7.77;;;;;;;-5.16;77.60;98390.50;6181468;28;20221;-67
2022/03/09 02:15:46;;;;;;;12.53;8.10;;;;;;;-5.14;77.92;98390.47;6201613;28;20405;-67
2022/03/09 02:18:48;;;;;;;11.87;8.00;;;;;;;-5.15;77.82;98394.78;6156821;28;20244;-67
2022/03/09 02:22:01;;;;;;;14.10;9.87;;;;;;;-5.14;77.65;98395.63;6209018;28;20759;-67
2022/03/09 02:25:07;;;;;;;9.27;7.57;;;;;;;-5.15;78.16;98399.06;6210479;28;20240;-68
2022/03/09 02:28:09;;;;;;;12.03;8.47;;;;;;;-5.21;77.85;98392.25;6179968;28;20724;-67
2022/03/09 02:31:11;;;;;;;14.97;9.43;;;;;;;-5.26;77.86;98396.56;6180064;28;20598;-67
2022/03/09 02:34:13;;;;;;;12.53;8.63;;;;;;;-5.32;78.01;98396.59;6180650;28;20248;-68
2022/03/09 02:37:16;;;;;;;12.57;8.93;;;;;;;-5.36;78.06;98400.91;6174497;28;20557;-67
2022/03/09 02:40:18;;;;;;;15.43;8.97;;;;;;;-5.39;78.94;98389.81;6178335;28;20629;-67
2022/03/09 02:43:21;;;;;;;12.33;8.60;;;;;;;-5.44;77.98;98389.81;6179983;28;20554;-67
2022/03/09 02:46:23;;;;;;;12.13;8.77;;;;;;;-5.48;78.38;98389.81;6189346;28;20236;-67
2022/03/09 02:49:25;;;;;;;12.90;8.87;;;;;;;-5.51;78.71;98383.00;6181788;28;20720;-67
2022/03/09 02:52:27;;;;;;;11.17;8.77;;;;;;;-5.55;78.39;98386.44;6210868;28;20604;-67
2022/03/09 02:55:30;;;;;;;13.87;9.47;;;;;;;-5.60;78.50;98386.47;6179813;28;20240;-67
2022/03/09 02:58:32;;;;;;;12.87;8.73;;;;;;;-5.61;78.71;98383.91;6194250;28;20576;-67
2022/03/09 03:01:34;;;;;;;14.20;8.77;;;;;;;-5.61;79.00;98384.78;6193168;28;20240;-67
2022/03/09 03:04:37;;;;;;;12.63;8.83;;;;;;;-5.62;79.00;98379.63;6209745;28;20232;-67
2022/03/09 03:07:39;;;;;;;16.03;9.07;;;;;;;-5.67;79.04;98383.94;6178996;28;20311;-67
2022/03/09 03:10:41;;;;;;;14.23;8.73;;;;;;;-5.69;78.90;98386.50;6179225;28;20237;-67
2022/03/09 03:13:45;;;;;;;16.57;10.03;;;;;;;-5.71;78.69;98388.25;6180263;28;20240;-67
2022/03/09 03:16:47;;;;;;;15.00;9.47;;;;;;;-5.74;78.81;98393.38;6196082;28;20260;-67
2022/03/09 03:19:49;;;;;;;16.73;8.97;;;;;;;-5.76;78.73;98392.53;6187513;28;20248;-67
2022/03/09 03:22:51;;;;;;;13.83;9.37;;;;;;;-5.79;79.22;98384.84;6178409;28;20716;-67
2022/03/09 03:25:54;;;;;;;13.90;8.53;;;;;;;-5.80;79.25;98397.72;6179618;28;20639;-69
2022/03/09 03:28:58;;;;;;;14.77;9.27;;;;;;;-5.83;79.42;98403.72;6183877;28;20231;-67
2022/03/09 03:32:00;;;;;;;15.07;8.83;;;;;;;-5.82;78.90;98404.56;6178331;28;20646;-66
2022/03/09 03:35:03;;;;;;;13.83;9.23;;;;;;;-5.87;79.89;98398.56;6179565;28;20237;-66
2022/03/09 03:38:05;;;;;;;16.63;9.93;;;;;;;-5.89;79.41;98396.06;6178709;28;20668;-66
2022/03/09 03:41:07;;;;;;;16.30;8.70;;;;;;;-5.90;79.73;98386.66;6178784;28;20581;-66
2022/03/09 03:44:09;;;;;;;13.23;9.00;;;;;;;-5.91;79.52;98392.66;6193198;28;20724;-66
2022/03/09 03:47:11;;;;;;;12.80;8.90;;;;;;;-5.90;79.80;98389.22;6162633;28;20605;-66
2022/03/09 03:50:14;;;;;;;14.03;8.20;;;;;;;-5.91;80.20;98379.81;6168841;28;20648;-67
2022/03/09 03:53:16;;;;;;;11.47;7.97;;;;;;;-5.92;79.90;98393.50;6170533;28;20307;-67
2022/03/09 03:56:18;;;;;;;13.03;8.90;;;;;;;-5.94;80.15;98397.78;6178491;28;20641;-67
2022/03/09 03:59:20;;;;;;;12.40;8.63;;;;;;;-5.96;79.85;98391.78;6176034;28;20854;-66
2022/03/09 04:02:22;;;;;;;14.90;9.10;;;;;;;-5.97;80.07;98392.66;6178109;28;20232;-68
2022/03/09 04:05:24;;;;;;;14.07;8.63;;;;;;;-5.97;80.67;98401.22;6179443;28;20233;-67
2022/03/09 04:08:26;;;;;;;14.67;8.90;;;;;;;-5.97;80.32;98406.34;6209057;28;20221;-66
2022/03/09 04:11:28;;;;;;;15.97;9.77;;;;;;;-5.99;80.50;98408.06;6176011;28;20239;-67
2022/03/09 04:14:30;;;;;;;13.07;9.00;;;;;;;-6.00;80.34;98401.25;6177407;28;20233;-66
2022/03/09 04:17:42;;;;;;;13.87;8.47;;;;;;;-5.98;80.32;98398.66;6190267;28;20267;-67
2022/03/09 04:20:44;;;;;;;12.40;7.83;;;;;;;-6.01;80.09;98393.53;6179152;28;20237;-67
2022/03/09 04:23:46;;;;;;;16.50;9.60;;;;;;;-6.00;80.50;98390.97;6177639;28;20229;-66
2022/03/09 04:26:48;;;;;;;15.27;8.77;;;;;;;-6.02;80.22;98387.53;6177828;28;20374;-67
2022/03/09 04:29:50;;;;;;;16.33;8.97;;;;;;;-6.05;80.19;98390.13;6177125;28;20232;-68
2022/03/09 04:32:52;;;;;;;13.27;8.57;;;;;;;-6.03;80.00;98400.41;6209037;28;20233;-67
2022/03/09 04:35:54;;;;;;;12.50;8.73;;;;;;;-6.05;80.13;98402.09;6176367;28;20635;-66
2022/03/09 04:38:56;;;;;;;13.60;8.37;;;;;;;-6.05;80.10;98395.25;6192399;28;20241;-68
2022/03/09 04:41:59;;;;;;;11.33;7.27;;;;;;;-6.09;80.60;98398.69;6177947;28;20241;-67
2022/03/09 04:45:01;;;;;;;11.43;7.87;;;;;;;-6.09;80.79;98396.09;6178579;28;20606;-68
2022/03/09 04:48:03;;;;;;;11.87;7.93;;;;;;;-6.11;81.01;98400.41;6172324;28;20634;-68
2022/03/09 04:51:05;;;;;;;12.53;8.73;;;;;;;-6.12;80.06;98398.72;6151864;28;20237;-67
2022/03/09 04:54:07;;;;;;;12.83;8.37;;;;;;;-6.14;80.89;98400.41;6152716;28;20635;-67
2022/03/09 04:57:09;;;;;;;13.10;8.53;;;;;;;-6.13;81.23;98398.72;6153587;28;20213;-67
2022/03/09 05:00:11;;;;;;;9.90;7.30;;;;;;;-6.11;80.53;98400.41;6153162;28;20212;-66
2022/03/09 05:03:13;;;;;;;12.17;8.50;;;;;;;-6.14;81.26;98400.41;6153968;28;20226;-66
2022/03/09 05:06:16;;;;;;;11.40;8.00;;;;;;;-6.14;80.62;98400.41;6156982;28;20700;-67
2022/03/09 05:09:18;;;;;;;14.67;9.03;;;;;;;-6.18;80.60;98406.41;6157465;28;20700;-66
2022/03/09 05:12:20;;;;;;;12.03;8.07;;;;;;;-6.17;80.96;98386.72;6158294;28;20576;-67
2022/03/09 05:15:22;;;;;;;14.00;8.30;;;;;;;-6.14;81.01;98391.84;6158008;28;20230;-71
2022/03/09 05:18:25;;;;;;;13.57;9.40;;;;;;;-6.14;80.76;98395.28;6159077;28;20229;-71
2022/03/09 05:21:27;;;;;;;12.33;7.63;;;;;;;-6.15;81.37;98393.56;6160939;28;20352;-71
2022/03/09 05:24:30;;;;;;;14.90;8.17;;;;;;;-6.13;81.28;98402.13;6161455;28;20693;-71
2022/03/09 05:27:31;;;;;;;13.73;8.57;;;;;;;-6.12;81.04;98400.41;6157717;28;20248;-71
2022/03/09 05:30:33;;;;;;;12.37;8.53;;;;;;;-6.12;81.42;98408.13;6172833;28;20236;-71
2022/03/09 05:33:35;;;;;;;11.70;7.90;;;;;;;-6.11;81.33;98413.25;6158161;28;20328;-71
2022/03/09 05:36:37;;;;;;;14.57;9.93;;;;;;;-6.07;81.30;98406.38;6155650;28;20242;-71
2022/03/09 05:39:39;;;;;;;14.43;8.80;;;;;;;-6.05;81.40;98414.94;6157081;28;20705;-70
2022/03/09 05:42:45;;;;;;;13.90;8.33;;;;;;;-6.02;81.15;98412.38;6187422;28;20590;-71
2022/03/09 05:45:53;;;;;;;12.37;7.53;;;;;;;-5.98;81.17;98409.78;6164263;28;20237;-71
2022/03/09 05:48:56;;;;;;;11.10;7.73;;;;;;;-5.94;81.25;98417.50;6171575;28;20352;-71
2022/03/09 05:51:58;;;;;;;12.20;7.93;;;;;;;-5.88;81.34;98420.03;6155364;28;20698;-71
2022/03/09 05:55:00;;;;;;;10.43;7.20;;;;;;;-5.86;81.34;98418.28;6155133;28;20237;-71
2022/03/09 05:58:03;;;;;;;13.27;7.90;;;;;;;-5.84;81.14;98425.13;6156432;28;20233;-71
2022/03/09 06:01:05;;;;;;;13.20;7.53;;;;;;;-5.81;80.99;98432.84;6156677;28;20242;-71
2022/03/09 06:04:07;;;;;;;12.60;7.93;;;;;;;-5.79;81.08;98425.94;6156121;28;20230;-71
2022/03/09 06:07:09;;;;;;;11.63;7.83;;;;;;;-5.74;81.40;98423.38;6171280;28;20226;-71
2022/03/09 06:10:11;;;;;;;12.53;7.53;;;;;;;-5.67;80.97;98420.78;6155216;28;20632;-71
2022/03/09 06:13:13;;;;;;;11.87;7.73;;;;;;;-5.62;80.57;98424.19;6156740;28;20244;-71
2022/03/09 06:16:15;;;;;;;13.73;8.77;;;;;;;-5.53;81.28;98430.16;6167349;28;20240;-71
2022/03/09 06:19:18;;;;;;;13.77;8.33;;;;;;;-5.49;80.92;98427.53;6160111;28;20236;-71
2022/03/09 06:22:20;;;;;;;12.20;7.67;;;;;;;-5.43;80.79;98424.09;6166029;28;20336;-71
2022/03/09 06:25:22;;;;;;;12.23;9.00;;;;;;;-5.39;81.04;98429.19;6167341;28;20742;-71
2022/03/09 06:28:24;;;;;;;13.33;8.53;;;;;;;-5.31;80.78;98432.63;6154920;28;20234;-71
2022/03/09 06:31:30;;;;;;;11.63;8.37;;;;;;;-5.23;80.94;98430.84;6155914;28;20226;-71
2022/03/09 06:34:32;;;;;;;10.97;7.40;;;;;;;-5.15;80.81;98438.50;6157707;28;20301;-72
2022/03/09 06:37:34;;;;;;;13.30;8.23;;;;;;;-5.03;80.52;98437.59;6154583;28;20234;-72
2022/03/09 06:40:36;;;;;;;12.83;8.20;;;;;;;-4.89;80.68;98440.94;6155797;28;20225;-71
2022/03/09 06:43:38;;;;;;;12.50;8.57;;;;;;;-4.71;80.28;98437.38;6155975;28;20237;-71
2022/03/09 06:46:41;;;;;;;13.50;7.77;;;;;;;-4.58;79.58;98439.81;6170304;28;20328;-71
2022/03/09 06:49:43;;;;;;;10.77;7.50;;;;;;;-4.42;79.48;98435.41;6162648;28;20276;-71
2022/03/09 06:52:46;;;;;;;12.87;8.00;;;;;;;-4.26;79.41;98442.13;6155483;28;20229;-71
2022/03/09 06:55:50;;;;;;;10.23;7.30;;;;;;;-4.04;78.80;98447.91;6154092;28;20241;-71
2022/03/09 06:58:52;;;;;;;12.10;7.57;;;;;;;-3.80;78.85;98447.66;6153937;28;20312;-71
2022/03/09 07:01:54;;;;;;;12.13;7.43;;;;;;;-3.51;78.41;98451.63;6156378;28;20971;-71
2022/03/09 07:04:56;;;;;;;9.97;6.70;;;;;;;-3.24;77.96;98455.59;6154871;28;20713;-71
2022/03/09 07:07:59;;;;;;;11.17;7.70;;;;;;;-2.98;77.57;98453.50;6156299;28;20732;-71
2022/03/09 07:11:01;;;;;;;12.67;7.73;;;;;;;-2.71;76.82;98450.53;6154782;28;20241;-71
2022/03/09 07:14:03;;;;;;;9.50;7.47;;;;;;;-2.43;76.43;98456.09;6186616;28;20807;-71
2022/03/09 07:17:05;;;;;;;13.30;8.27;;;;;;;-2.11;74.51;98450.41;6183121;28;20252;-71
2022/03/09 07:20:09;;;;;;;11.03;7.03;;;;;;;-1.84;73.26;98451.63;6210942;28;20240;-71
2022/03/09 07:23:12;;;;;;;10.77;7.17;;;;;;;-1.31;70.22;98454.91;6179317;28;20455;-71
2022/03/09 07:26:14;;;;;;;9.93;7.37;;;;;;;-0.95;69.05;98461.03;6178169;28;20225;-71
2022/03/09 07:29:17;;;;;;;11.27;8.03;;;;;;;-0.71;68.49;98459.63;6191479;28;20743;-71
2022/03/09 07:32:19;;;;;;;10.70;7.93;;;;;;;-0.56;67.14;98461.88;6210976;28;20323;-71
2022/03/09 07:35:54;;;;;;;12.73;7.13;;;;;;;-0.26;65.45;98468.91;6177248;28;20553;-71
2022/03/09 07:38:56;;;;;;;10.57;6.50;;;;;;;-0.07;64.39;98471.91;6193307;28;20708;-70
2022/03/09 07:42:15;;;;;;;8.70;6.63;;;;;;;0.39;61.55;98479.34;6188359;28;20997;-71
2022/03/09 07:45:17;;;;;;;9.53;6.70;;;;;;;0.66;59.34;98476.00;6156415;28;20693;-71
2022/03/09 07:48:19;;;;;;;9.40;6.40;;;;;;;0.83;60.28;98478.09;6165680;28;20313;-69
2022/03/09 07:51:21;;;;;;;11.43;7.57;;;;;;;0.93;57.68;98473.50;6151825;28;20234;-70
2022/03/09 07:54:23;;;;;;;11.10;7.50;;;;;;;1.05;55.80;98478.34;6154615;28;20222;-70
2022/03/09 07:57:25;;;;;;;8.33;6.63;;;;;;;1.08;56.54;98480.84;6168587;28;20236;-70
2022/03/09 08:00:27;;;;;;;10.43;6.77;;;;;;;1.13;55.59;98480.69;6168239;28;20222;-70
2022/03/09 08:03:29;;;;;;;7.63;6.40;;;;;;;1.22;55.97;98485.63;6154582;28;20238;-72
2022/03/09 08:06:38;;;;;;;11.23;7.20;;;;;;;1.35;55.05;98492.16;6154488;28;20254;-70
2022/03/09 08:09:41;;;;;;;8.43;6.57;;;;;;;1.61;55.45;98491.34;6151977;28;20225;-70
2022/03/09 08:12:43;;;;;;;9.30;7.17;;;;;;;1.78;54.65;98479.53;6153941;28;20732;-70
2022/03/09 08:15:45;;;;;;;9.97;6.73;;;;;;;2.17;54.17;98485.16;6161746;28;20717;-70
2022/03/09 08:18:47;;;;;;;8.77;6.50;;;;;;;2.50;52.81;98474.47;6157997;28;20669;-70
2022/03/09 08:21:49;;;;;;;8.23;5.97;;;;;;;2.72;50.50;98469.34;6142013;28;20692;-70
2022/03/09 08:24:51;;;;;;;10.33;7.40;;;;;;;2.83;50.70;98468.06;6176241;28;20669;-70
2022/03/09 08:27:53;;;;;;;10.73;6.97;;;;;;;3.07;49.25;98479.34;6154010;28;20230;-71
2022/03/09 08:30:55;;;;;;;14.20;6.97;;;;;;;3.15;47.98;98473.84;6154163;28;20229;-71
2022/03/09 08:33:58;;;;;;;11.33;7.00;;;;;;;3.32;47.80;98464.44;6153445;28;20231;-70
2022/03/09 08:37:00;;;;;;;11.00;7.17;;;;;;;3.69;46.75;98466.44;6153709;28;20339;-71
2022/03/09 08:40:04;;;;;;;9.63;7.50;;;;;;;4.17;46.79;98467.13;6156391;28;20240;-70
2022/03/09 08:43:06;;;;;;;10.50;6.33;;;;;;;4.56;45.78;98468.03;6172923;28;20698;-71
2022/03/09 08:46:08;;;;;;;10.33;6.63;;;;;;;4.72;44.29;98470.81;6160985;28;20242;-70
2022/03/09 08:49:11;;;;;;;10.70;7.37;;;;;;;4.79;42.85;98461.81;6172365;28;20656;-71
2022/03/09 08:52:14;;;;;;;11.27;6.53;;;;;;;5.02;42.55;98473.81;6158064;28;20235;-71
2022/03/09 08:55:16;;;;;;;8.43;6.43;;;;;;;5.25;42.12;98468.41;6158887;28;20581;-70
2022/03/09 08:58:18;;;;;;;12.57;7.10;;;;;;;5.03;41.78;98476.38;6172550;28;20234;-70
2022/03/09 09:01:20;;;;;;;9.50;6.20;;;;;;;5.23;43.05;98466.78;6157892;28;20890;-71
2022/03/09 09:04:43;;;;;;;10.07;6.33;;;;;;;5.40;40.34;98458.97;6158335;28;20256;-71
2022/03/09 09:07:45;;;;;;;8.53;6.57;;;;;;;5.22;41.31;98455.44;6158470;28;20343;-71
2022/03/09 09:10:48;;;;;;;9.27;6.20;;;;;;;5.26;41.56;98456.16;6170670;28;20526;-71
2022/03/09 09:13:50;;;;;;;9.10;6.47;;;;;;;5.23;41.40;98449.31;6182743;28;20233;-71
2022/03/09 09:16:52;;;;;;;10.40;6.53;;;;;;;5.68;41.72;98456.78;6193455;28;20225;-71
2022/03/09 09:19:54;;;;;;;9.43;6.00;;;;;;;6.14;40.39;98441.44;6181649;28;20645;-71
2022/03/09 09:22:57;;;;;;;9.87;6.30;;;;;;;6.31;38.52;98446.66;6183275;28;20700;-72
2022/03/09 09:26:09;;;;;;;7.03;6.10;;;;;;;6.26;39.07;98440.81;6162348;28;20269;-71
2022/03/09 09:29:31;;;;;;;10.33;6.50;;;;;;;6.42;39.40;98439.09;6159258;28;20234;-72
2022/03/09 09:32:33;;;;;;;10.27;6.73;;;;;;;6.70;38.38;98429.78;6179808;28;20654;-72
2022/03/09 09:35:36;;;;;;;7.97;5.60;;;;;;;7.08;37.87;98430.38;6197426;28;20734;-71
2022/03/09 09:38:58;;;;;;;8.03;5.97;;;;;;;7.46;37.67;98428.28;6226900;28;20755;-72
2022/03/09 09:42:00;;;;;;;7.10;5.53;;;;;;;7.96;36.17;98417.53;6226721;28;20241;-72
2022/03/09 09:45:04;;;;;;;8.90;6.07;;;;;;;8.22;35.20;98421.25;6204353;28;20751;-71
2022/03/09 09:48:07;;;;;;;9.70;6.17;;;;;;;8.21;35.54;98425.66;6218895;28;20243;-72
2022/03/09 09:51:11;;;;;;;7.77;6.23;;;;;;;8.36;34.65;98418.69;6202226;28;20230;-72
2022/03/09 09:54:16;;;;;;;12.63;6.33;;;;;;;8.68;35.75;98412.34;6203142;28;20244;-71
2022/03/09 09:57:18;;;;;;;7.33;6.00;;;;;;;8.54;35.33;98406.22;6202768;28;20703;-71
2022/03/09 10:00:20;;;;;;;10.87;6.00;;;;;;;9.01;35.33;98398.03;6204305;28;20668;-71
2022/03/09 10:03:22;;;;;;;9.27;5.30;;;;;;;9.47;35.10;98399.44;6202505;28;20652;-71
2022/03/09 10:06:24;;;;;;;8.27;6.17;;;;;;;9.64;34.59;98401.00;6202291;28;20223;-71
2022/03/09 10:09:37;;;;;;;7.63;5.70;;;;;;;9.38;34.80;98404.47;6184225;28;20307;-71
2022/03/09 10:12:39;;;;;;;9.40;5.50;;;;;;;9.20;35.56;98396.75;6157437;28;20226;-72
2022/03/09 10:15:42;;;;;;;7.77;5.73;;;;;;;9.46;34.94;98403.03;6179482;28;20229;-71
2022/03/09 10:18:55;;;;;;;8.33;5.60;;;;;;;9.29;34.08;98400.59;6173455;28;20222;-73
2022/03/09 10:21:57;;;;;;;9.10;5.50;;;;;;;9.16;35.63;98397.06;6175391;28;20798;-71
2022/03/09 10:25:10;;;;;;;7.63;4.73;;;;;;;9.31;35.92;98390.81;6156762;28;20240;-72
2022/03/09 10:28:13;;;;;;;7.83;5.43;;;;;;;9.22;34.99;98396.66;6175138;28;20236;-72
2022/03/09 10:31:30;;;;;;;6.60;5.23;;;;;;;9.09;36.05;98388.69;6157988;28;20233;-72
2022/03/09 10:34:36;;;;;;;7.07;5.30;;;;;;;8.82;36.63;98393.91;6157497;28;20222;-72
2022/03/09 10:37:44;;;;;;;6.23;4.80;;;;;;;9.15;35.42;98390.13;6155117;28;20240;-72
2022/03/09 10:40:55;;;;;;;6.37;4.57;;;;;;;9.37;36.63;98384.34;6157155;28;20244;-72
2022/03/09 10:43:57;;;;;;;6.17;4.70;;;;;;;9.60;36.28;98383.66;6156194;28;20249;-72
2022/03/09 10:46:59;;;;;;;6.67;4.37;;;;;;;9.66;35.69;98374.53;6154490;28;20237;-72
2022/03/09 10:50:15;;;;;;;6.90;4.67;;;;;;;9.93;35.69;98378.81;6157723;28;20239;-72
2022/03/09 10:53:17;;;;;;;5.73;4.47;;;;;;;10.21;35.47;98371.72;6155967;28;20584;-72
2022/03/09 10:56:20;;;;;;;7.87;4.80;;;;;;;10.46;35.57;98371.75;6156982;28;20236;-73
2022/03/09 10:59:24;;;;;;;6.47;4.70;;;;;;;10.60;34.60;98376.91;6156898;28;20277;-73
2022/03/09 11:02:29;;;;;;;7.97;5.10;;;;;;;10.48;35.46;98372.47;6155009;28;20277;-72
2022/03/09 11:05:32;;;;;;;7.97;5.40;;;;;;;10.15;35.58;98364.22;6157008;28;20771;-72
2022/03/09 11:08:35;;;;;;;6.27;4.93;;;;;;;10.26;35.46;98372.28;6156159;28;20233;-72
2022/03/09 11:11:39;;;;;;;8.13;4.77;;;;;;;10.56;35.15;98366.69;6156944;28;20244;-71
2022/03/09 11:14:41;;;;;;;5.77;4.30;;;;;;;10.94;34.67;98358.72;6156398;28;20740;-72
2022/03/09 11:17:48;;;;;;;5.60;4.17;;;;;;;11.09;34.52;98358.47;6167427;28;20605;-72
2022/03/09 11:20:57;;;;;;;4.57;3.80;;;;;;;11.18;34.62;98361.41;6156950;28;20381;-72
2022/03/09 11:23:59;;;;;;;5.70;4.27;;;;;;;11.57;34.20;98361.16;6188546;28;20623;-71
2022/03/09 11:27:03;;;;;;;5.07;4.40;;;;;;;11.00;34.66;98353.84;6153629;28;20622;-73
2022/03/09 11:30:25;;;;;;;4.90;3.47;;;;;;;10.35;35.18;98356.66;6156259;28;20257;-73
2022/03/09 11:33:39;;;;;;;4.40;3.90;;;;;;;10.88;34.78;98356.53;6178118;28;20231;-72
2022/03/09 11:36:41;;;;;;;5.97;4.10;;;;;;;11.26;33.99;98354.63;6179388;28;20607;-73
2022/03/09 11:40:10;;;;;;;6.30;3.73;;;;;;;11.47;33.63;98344.28;6179576;28;20241;-73
2022/03/09 11:43:29;;;;;;;5.40;4.00;;;;;;;11.55;34.04;98362.22;6178619;28;20374;-71
2022/03/09 11:47:00;;;;;;;5.03;3.60;;;;;;;11.20;34.16;98349.75;6192284;28;20245;-71
2022/03/09 11:50:06;;;;;;;4.33;3.87;;;;;;;11.07;34.98;98338.41;6180422;28;20217;-72
2022/03/09 11:53:09;;;;;;;4.13;3.43;;;;;;;12.03;33.38;98321.56;6193964;28;20240;-71
2022/03/09 11:56:31;;;;;;;5.83;4.07;;;;;;;12.53;32.82;98335.38;6179151;28;20233;-71
2022/03/09 11:59:33;;;;;;;5.90;3.60;;;;;;;12.73;32.39;98324.06;6177889;28;20234;-71
2022/03/09 12:02:55;;;;;;;5.63;3.70;;;;;;;11.93;33.14;98338.25;6208813;28;20227;-72
2022/03/09 12:05:59;;;;;;;4.70;3.40;;;;;;;12.31;32.18;98330.03;6178779;28;20235;-71
2022/03/09 12:09:01;;;;;;;5.40;3.27;;;;;;;12.44;32.61;98333.44;6178474;28;20245;-73
2022/03/09 12:12:07;;;;;;;4.10;3.67;;;;;;;12.66;31.88;98328.16;6178976;28;20219;-73
2022/03/09 12:15:12;;;;;;;5.23;3.80;;;;;;;12.51;32.38;98319.59;6178907;28;20224;-73
2022/03/09 12:18:47;;;;;;;5.80;4.07;;;;;;;12.06;31.81;98323.16;6178528;28;20220;-71
2022/03/09 12:21:50;;;;;;;4.17;3.67;;;;;;;11.76;32.61;98321.88;6178748;28;20227;-72
2022/03/09 12:25:31;;;;;;;5.23;3.97;;;;;;;11.57;33.31;98310.09;6178404;28;20308;-72
2022/03/09 12:28:34;;;;;;;5.50;3.83;;;;;;;11.96;32.46;98315.06;6178349;28;20623;-71
2022/03/09 12:31:36;;;;;;;4.63;3.73;;;;;;;12.38;31.38;98294.19;6192101;28;20726;-71
2022/03/09 12:34:46;;;;;;;5.43;4.33;;;;;;;12.07;32.52;98299.22;6178560;28;20325;-72
2022/03/09 12:37:52;;;;;;;4.50;3.57;;;;;;;12.35;32.34;98303.22;6177013;28;20235;-72
2022/03/09 12:40:54;;;;;;;5.53;3.47;;;;;;;12.16;32.71;98298.53;6193563;28;20250;-72
2022/03/09 12:44:05;;;;;;;4.50;3.87;;;;;;;12.14;32.10;98294.28;6177778;28;20715;-71
2022/03/09 12:47:07;;;;;;;5.23;3.73;;;;;;;11.88;33.32;98290.16;6185313;28;20609;-72
2022/03/09 12:50:10;;;;;;;5.70;4.00;;;;;;;11.82;32.37;98289.66;6177596;28;20284;-72
2022/03/09 12:53:17;;;;;;;7.23;3.57;;;;;;;11.77;32.85;98275.09;6177645;28;20226;-71
2022/03/09 12:56:21;;;;;;;4.13;3.63;;;;;;;12.31;32.13;98274.47;6178419;28;20230;-71
2022/03/09 12:59:37;;;;;;;5.33;4.07;;;;;;;12.27;32.27;98280.97;6191368;28;20245;-72
2022/03/09 13:02:52;;;;;;;7.27;4.20;;;;;;;13.02;31.56;98275.84;6178455;28;20854;-71
2022/03/09 13:05:56;;;;;;;5.80;4.23;;;;;;;13.51;30.15;98267.41;6192754;28;20608;-72
2022/03/09 13:08:58;;;;;;;4.83;3.97;;;;;;;13.96;30.10;98250.31;6177293;28;20235;-71
2022/03/09 13:12:07;;;;;;;5.30;4.30;;;;;;;13.98;28.37;98250.16;6208794;28;20240;-72
2022/03/09 13:15:09;;;;;;;6.73;4.23;;;;;;;13.77;29.79;98255.50;6179319;28;20739;-72
2022/03/09 13:18:13;;;;;;;5.47;4.57;;;;;;;14.14;29.54;98253.22;6166220;28;20221;-72
2022/03/09 13:21:16;;;;;;;6.87;4.27;;;;;;;14.65;28.73;98250.53;6154059;28;20221;-72
2022/03/09 13:24:19;;;;;;;7.37;4.60;;;;;;;15.29;28.22;98239.47;6171282;28;20225;-71
2022/03/09 13:27:21;;;;;;;5.20;4.67;;;;;;;15.13;27.52;98239.19;6155912;28;20237;-72
2022/03/09 13:30:23;;;;;;;5.43;4.70;;;;;;;15.40;27.30;98249.13;6159049;28;20226;-73
2022/03/09 13:33:25;;;;;;;9.00;4.83;;;;;;;16.89;25.30;98246.56;6157539;28;20237;-72
2022/03/09 13:36:28;;;;;;;6.63;4.40;;;;;;;18.72;23.73;98217.38;6156506;28;20241;-72
2022/03/09 13:39:43;;;;;;;5.53;4.77;;;;;;;19.69;21.38;98225.63;6157309;28;20226;-72
2022/03/09 13:42:45;;;;;;;5.77;4.53;;;;;;;21.33;20.18;98219.66;6157891;28;20398;-72
2022/03/09 13:45:47;;;;;;;4.33;3.90;;;;;;;22.61;19.10;98216.00;6164948;28;20243;-72
2022/03/09 13:49:11;;;;;;;3.97;3.53;;;;;;;23.50;17.79;98228.31;6175201;28;20239;-72
2022/03/09 13:52:28;;;;;;;4.37;3.63;;;;;;;22.01;19.46;98216.13;6157373;28;20705;-72
2022/03/09 13:55:30;;;;;;;4.70;4.00;;;;;;;22.35;19.33;98215.63;6172077;28;20261;-71
2022/03/09 13:58:41;;;;;;;5.53;4.20;;;;;;;23.11;18.31;98219.78;6156173;28;20245;-72
2022/03/09 14:01:43;;;;;;;3.77;3.37;;;;;;;24.23;17.54;98208.25;6157062;28;20259;-72
2022/03/09 14:04:46;;;;;;;5.67;3.30;;;;;;;24.66;17.29;98207.28;6158338;28;20680;-72
2022/03/09 14:07:48;;;;;;;4.33;3.47;;;;;;;23.70;17.92;98216.91;6171091;28;20234;-72
2022/03/09 14:10:51;;;;;;;5.17;3.83;;;;;;;23.57;17.75;98209.50;6156851;28;20234;-73
2022/03/09 14:14:03;;;;;;;4.07;3.63;;;;;;;20.65;20.45;98212.28;6156228;28;20701;-71
2022/03/09 14:17:06;;;;;;;5.80;3.40;;;;;;;16.76;25.21;98215.94;6163702;28;20260;-72
2022/03/09 14:20:10;;;;;;;3.97;3.20;;;;;;;15.23;27.41;98221.41;6155917;28;20226;-72
2022/03/09 14:23:14;;;;;;;5.90;3.20;;;;;;;13.76;29.62;98215.81;6166401;28;20283;-72